createdAt,value
2018-07-14T00:01:24.508Z,15.50
2018-07-14T00:03:52.914Z,15.40
2018-07-14T00:06:21.245Z,15.30
2018-07-14T00:08:49.530Z,15.30
2018-07-14T00:11:17.851Z,15.30
2018-07-14T00:13:46.119Z,15.20
2018-07-14T00:16:14.452Z,15.20
2018-07-14T00:18:43.005Z,15.10
2018-07-14T00:21:11.327Z,15.10
2018-07-14T00:23:39.791Z,15.10
2018-07-14T00:26:08.224Z,15.10
2018-07-14T00:28:36.598Z,15.00
2018-07-14T00:31:04.898Z,15.00
2018-07-14T00:33:33.159Z,15.00
2018-07-14T00:36:01.495Z,14.90
2018-07-14T00:38:29.772Z,14.90
2018-07-14T00:40:58.081Z,14.80
2018-07-14T00:43:26.393Z,14.90
2018-07-14T00:45:54.658Z,14.90
2018-07-14T00:48:22.978Z,14.80
2018-07-14T00:50:51.232Z,14.80
2018-07-14T00:53:19.518Z,14.80
2018-07-14T00:55:47.767Z,14.70
2018-07-14T00:58:16.033Z,14.70
2018-07-14T01:00:44.362Z,14.70
2018-07-14T01:03:12.674Z,14.60
2018-07-14T01:05:40.926Z,14.60
2018-07-14T01:08:09.203Z,14.60
2018-07-14T01:10:37.460Z,14.60
2018-07-14T01:13:06.059Z,14.60
2018-07-14T01:15:34.331Z,14.60
2018-07-14T01:18:02.618Z,14.60
2018-07-14T01:20:30.892Z,14.60
2018-07-14T01:22:59.150Z,14.60
2018-07-14T01:25:27.433Z,14.50
2018-07-14T01:27:55.724Z,14.50
2018-07-14T01:30:24.002Z,14.50
2018-07-14T01:32:52.252Z,14.40
2018-07-14T01:35:20.526Z,14.40
2018-07-14T01:37:48.786Z,14.40
2018-07-14T01:40:17.048Z,14.40
2018-07-14T01:42:45.342Z,14.40
2018-07-14T01:45:13.591Z,14.40
2018-07-14T01:47:41.828Z,14.40
2018-07-14T01:50:10.087Z,14.40
2018-07-14T01:52:38.350Z,14.40
2018-07-14T01:55:06.650Z,14.30
2018-07-14T01:57:34.941Z,14.30
2018-07-14T02:00:03.203Z,14.30
2018-07-14T02:02:31.479Z,14.30
2018-07-14T02:04:59.974Z,14.30
2018-07-14T02:07:28.469Z,14.30
2018-07-14T02:09:56.754Z,14.20
2018-07-14T02:12:24.994Z,14.20
2018-07-14T02:14:53.261Z,14.20
2018-07-14T02:17:21.503Z,14.20
2018-07-14T02:19:49.754Z,14.10
2018-07-14T02:22:18.056Z,14.10
2018-07-14T02:24:46.314Z,14.10
2018-07-14T02:27:14.580Z,14.10
2018-07-14T02:29:42.822Z,14.10
2018-07-14T02:32:11.097Z,14.10
2018-07-14T02:34:39.670Z,14.00
2018-07-14T02:37:07.990Z,14.00
2018-07-14T02:39:36.277Z,14.00
2018-07-14T02:42:04.537Z,14.00
2018-07-14T02:44:32.787Z,13.90
2018-07-14T02:47:01.042Z,13.90
2018-07-14T02:49:29.294Z,13.90
2018-07-14T02:51:57.611Z,13.90
2018-07-14T02:54:25.871Z,13.90
2018-07-14T02:56:54.119Z,13.90
2018-07-14T02:59:22.715Z,13.90
2018-07-14T03:01:50.985Z,13.80
2018-07-14T03:04:19.272Z,13.80
2018-07-14T03:06:47.528Z,13.80
2018-07-14T03:09:17.254Z,13.80
2018-07-14T03:11:45.524Z,13.80
2018-07-14T03:14:13.792Z,13.90
2018-07-14T03:16:42.111Z,13.80
2018-07-14T03:19:10.351Z,13.80
2018-07-14T03:21:38.646Z,13.80
2018-07-14T03:24:07.242Z,13.70
2018-07-14T03:26:35.495Z,13.70
2018-07-14T03:29:04.006Z,13.60
2018-07-14T03:31:32.335Z,13.60
2018-07-14T03:34:00.603Z,13.60
2018-07-14T03:36:28.850Z,13.60
2018-07-14T03:38:57.135Z,13.50
2018-07-14T03:41:25.378Z,13.50
2018-07-14T03:43:53.659Z,13.50
2018-07-14T03:46:21.954Z,13.60
2018-07-14T03:48:50.210Z,13.60
2018-07-14T03:51:18.492Z,13.60
2018-07-14T03:53:46.767Z,13.60
2018-07-14T03:56:15.077Z,13.60
2018-07-14T03:58:43.323Z,13.60
2018-07-14T04:01:11.579Z,13.60
2018-07-14T04:03:39.845Z,13.60
2018-07-14T04:06:08.102Z,13.60
2018-07-14T04:08:36.419Z,13.70
2018-07-14T04:11:05.063Z,13.70
2018-07-14T04:13:33.995Z,13.80
2018-07-14T04:16:02.282Z,13.80
2018-07-14T04:18:30.530Z,13.80
2018-07-14T04:20:58.800Z,13.90
2018-07-14T04:23:27.058Z,13.90
2018-07-14T04:25:55.342Z,13.90
2018-07-14T04:28:23.577Z,14.00
2018-07-14T04:30:51.829Z,13.90
2018-07-14T04:33:20.112Z,13.90
2018-07-14T04:35:48.367Z,13.90
2018-07-14T04:38:16.627Z,13.90
2018-07-14T04:40:44.897Z,13.90
2018-07-14T04:43:13.139Z,13.90
2018-07-14T04:45:41.388Z,13.90
2018-07-14T04:48:09.668Z,13.90
2018-07-14T04:50:37.938Z,14.00
2018-07-14T04:53:06.249Z,14.00
2018-07-14T04:55:34.667Z,14.00
2018-07-14T04:58:03.549Z,14.10
2018-07-14T05:00:32.728Z,14.10
2018-07-14T05:03:01.046Z,14.20
2018-07-14T05:05:29.311Z,14.30
2018-07-14T05:07:57.559Z,14.30
2018-07-14T05:10:27.354Z,14.30
2018-07-14T05:12:55.631Z,14.40
2018-07-14T05:15:23.910Z,14.50
2018-07-14T05:17:52.172Z,14.50
2018-07-14T05:20:20.442Z,14.60
2018-07-14T05:22:48.716Z,14.70
2018-07-14T05:25:17.017Z,14.70
2018-07-14T05:27:45.588Z,14.90
2018-07-14T05:30:13.878Z,15.00
2018-07-14T05:32:42.175Z,15.20
2018-07-14T05:35:11.014Z,15.40
2018-07-14T05:37:39.293Z,15.50
2018-07-14T05:40:07.924Z,15.70
2018-07-14T05:42:36.224Z,15.90
2018-07-14T05:45:04.725Z,16.00
2018-07-14T05:47:33.011Z,16.20
2018-07-14T05:50:01.291Z,16.40
2018-07-14T05:52:29.591Z,16.50
2018-07-14T05:54:57.856Z,16.70
2018-07-14T05:57:26.155Z,17.00
2018-07-14T05:59:54.429Z,17.10
2018-07-14T06:02:22.956Z,17.40
2018-07-14T06:04:51.834Z,17.60
2018-07-14T06:09:49.446Z,18.00
2018-07-14T06:12:18.535Z,18.20
2018-07-14T06:17:15.991Z,18.60
2018-07-14T06:19:45.049Z,18.90
2018-07-14T06:22:14.274Z,19.10
2018-07-14T06:24:43.132Z,19.20
2018-07-14T06:27:11.938Z,19.40
2018-07-14T06:29:40.803Z,19.60
2018-07-14T06:32:10.025Z,19.60
2018-07-14T06:34:39.018Z,19.70
2018-07-14T06:37:08.196Z,19.60
2018-07-14T06:42:05.948Z,19.70
2018-07-14T06:44:34.798Z,19.70
2018-07-14T06:47:04.109Z,19.70
2018-07-14T06:49:32.939Z,19.80
2018-07-14T06:52:02.627Z,19.80
2018-07-14T06:54:31.521Z,19.80
2018-07-14T06:57:00.358Z,19.90
2018-07-14T06:59:29.227Z,19.90
2018-07-14T07:01:58.108Z,20.00
2018-07-14T07:04:26.954Z,20.10
2018-07-14T07:06:55.825Z,20.20
2018-07-14T07:09:24.688Z,20.30
2018-07-14T07:11:53.902Z,20.30
2018-07-14T07:14:23.010Z,20.30
2018-07-14T07:16:51.916Z,20.30
2018-07-14T07:19:20.780Z,20.30
2018-07-14T07:21:49.968Z,20.30
2018-07-14T07:24:19.296Z,20.30
2018-07-14T07:26:48.235Z,20.30
2018-07-14T07:29:17.574Z,20.30
2018-07-14T07:31:46.483Z,20.20
2018-07-14T07:34:15.348Z,20.30
2018-07-14T07:36:53.419Z,20.50
2018-07-14T07:39:22.231Z,20.70
2018-07-14T07:41:51.082Z,20.90
2018-07-14T07:44:19.914Z,21.00
2018-07-14T07:46:51.845Z,21.10
2018-07-14T07:49:21.113Z,21.30
2018-07-14T07:51:50.034Z,21.30
2018-07-14T07:54:19.072Z,21.40
2018-07-14T07:56:47.996Z,21.60
2018-07-14T07:59:16.914Z,21.50
2018-07-14T08:01:45.511Z,21.60
2018-07-14T08:04:14.496Z,21.80
2018-07-14T08:06:44.235Z,22.00
2018-07-14T08:09:13.162Z,22.10
2018-07-14T08:11:42.057Z,22.20
2018-07-14T08:14:10.968Z,22.20
2018-07-14T08:16:39.902Z,22.20
2018-07-14T08:19:08.801Z,22.30
2018-07-14T08:21:37.814Z,22.20
2018-07-14T08:24:06.690Z,22.10
2018-07-14T08:26:35.617Z,22.10
2018-07-14T08:29:04.894Z,22.20
2018-07-14T08:31:33.780Z,22.30
2018-07-14T08:34:02.662Z,22.60
2018-07-14T08:36:31.588Z,22.70
2018-07-14T08:39:00.562Z,22.60
2018-07-14T08:41:29.486Z,22.60
2018-07-14T08:44:00.555Z,22.60
2018-07-14T08:46:29.496Z,22.70
2018-07-14T08:48:58.598Z,22.90
2018-07-14T08:51:27.944Z,22.60
2018-07-14T08:56:25.904Z,22.70
2018-07-14T08:58:54.885Z,22.70
2018-07-14T09:01:23.600Z,22.70
2018-07-14T09:03:52.802Z,22.80
2018-07-14T09:06:21.717Z,22.90
2018-07-14T09:08:50.607Z,23.00
2018-07-14T09:11:19.567Z,23.00
2018-07-14T09:13:48.632Z,22.80
2018-07-14T09:16:17.481Z,22.90
2018-07-14T09:18:46.325Z,23.00
2018-07-14T09:21:15.190Z,23.10
2018-07-14T09:23:44.139Z,23.10
2018-07-14T09:26:13.130Z,23.10
2018-07-14T09:28:42.135Z,23.00
2018-07-14T09:31:10.993Z,22.90
2018-07-14T09:33:43.732Z,23.10
2018-07-14T09:36:12.559Z,23.30
2018-07-14T09:38:41.404Z,23.40
2018-07-14T09:41:10.336Z,23.60
2018-07-14T09:43:39.236Z,23.50
2018-07-14T09:46:09.001Z,23.30
2018-07-14T09:48:37.961Z,23.40
2018-07-14T09:51:07.014Z,23.50
2018-07-14T09:53:35.951Z,23.40
2018-07-14T09:56:04.872Z,23.60
2018-07-14T10:01:09.243Z,23.60
2018-07-14T10:03:39.025Z,23.70
2018-07-14T10:06:08.896Z,23.60
2018-07-14T10:08:38.168Z,23.60
2018-07-14T10:11:07.387Z,23.70
2018-07-14T10:13:38.417Z,23.60
2018-07-14T10:16:07.339Z,23.80
2018-07-14T10:18:36.280Z,23.80
2018-07-14T10:21:05.530Z,23.90
2018-07-14T10:23:34.406Z,24.00
2018-07-14T10:26:03.265Z,24.10
2018-07-14T10:28:32.198Z,24.10
2018-07-14T10:31:01.091Z,24.30
2018-07-14T10:33:30.235Z,24.10
2018-07-14T10:36:05.102Z,24.30
2018-07-14T10:38:33.967Z,24.20
2018-07-14T10:41:03.066Z,24.30
2018-07-14T10:43:32.136Z,24.40
2018-07-14T10:46:00.968Z,24.50
2018-07-14T10:48:29.945Z,24.60
2018-07-14T10:50:58.885Z,24.50
2018-07-14T10:53:27.879Z,24.30
2018-07-14T10:58:25.934Z,24.30
2018-07-14T11:00:54.545Z,24.30
2018-07-14T11:03:23.952Z,23.90
2018-07-14T11:05:52.872Z,24.10
2018-07-14T11:08:21.724Z,24.30
2018-07-14T11:10:50.564Z,24.50
2018-07-14T11:19:06.748Z,24.60
2018-07-14T11:21:35.634Z,24.70
2018-07-14T11:24:04.728Z,24.70
2018-07-14T11:26:33.560Z,24.60
2018-07-14T11:29:02.386Z,24.70
2018-07-14T11:31:31.268Z,24.80
2018-07-14T11:34:00.092Z,24.80
2018-07-14T11:36:28.972Z,24.70
2018-07-14T11:38:57.789Z,24.80
2018-07-14T11:41:27.149Z,24.90
2018-07-14T11:43:55.993Z,25.10
2018-07-14T11:46:24.838Z,25.20
2018-07-14T11:48:53.734Z,25.20
2018-07-14T11:51:22.852Z,25.40
2018-07-14T11:53:52.372Z,25.40
2018-07-14T11:56:21.240Z,25.50
2018-07-14T12:01:19.129Z,25.60
2018-07-14T12:03:48.165Z,25.40
2018-07-14T12:06:17.029Z,25.40
2018-07-14T12:08:46.152Z,25.50
2018-07-14T12:11:15.021Z,25.60
2018-07-14T12:13:43.865Z,25.70
2018-07-14T12:16:12.727Z,25.50
2018-07-14T12:18:47.576Z,25.80
2018-07-14T12:21:16.495Z,25.90
2018-07-14T12:23:45.331Z,26.10
2018-07-14T12:26:14.219Z,26.10
2018-07-14T12:28:43.112Z,26.20
2018-07-14T12:31:11.961Z,26.40
2018-07-14T12:33:41.042Z,26.30
2018-07-14T12:36:09.949Z,26.20
2018-07-14T12:38:38.900Z,26.20
2018-07-14T12:58:27.258Z,26.30
2018-07-14T13:00:55.856Z,26.50
2018-07-14T13:03:25.088Z,26.60
2018-07-14T13:05:54.036Z,26.60
2018-07-14T13:08:23.082Z,26.70
2018-07-14T13:10:51.993Z,26.80
2018-07-14T13:13:21.135Z,26.80
2018-07-14T13:15:50.042Z,26.80
2018-07-14T13:18:18.951Z,27.00
2018-07-14T13:23:42.862Z,26.90
2018-07-14T13:26:11.797Z,27.00
2018-07-14T13:28:40.702Z,27.20
2018-07-14T13:31:09.649Z,27.10
2018-07-14T13:33:39.152Z,27.10
2018-07-14T13:36:08.052Z,27.30
2018-07-14T13:38:36.962Z,27.30
2018-07-14T13:41:06.687Z,27.40
2018-07-14T13:43:35.881Z,27.60
2018-07-14T13:46:11.532Z,27.80
2018-07-14T13:48:40.405Z,27.80
2018-07-14T13:51:09.309Z,28.00
2018-07-14T13:53:37.871Z,27.90
2018-07-14T13:56:10.850Z,28.00
2018-07-14T13:58:39.982Z,27.90
2018-07-14T14:01:08.591Z,27.80
2018-07-14T14:03:37.227Z,28.00
2018-07-14T14:06:06.170Z,28.20
2018-07-14T14:08:40.789Z,28.20
2018-07-14T14:11:09.737Z,28.30
2018-07-14T14:13:38.798Z,28.40
2018-07-14T14:16:08.186Z,28.40
2018-07-14T14:18:36.950Z,28.40
2018-07-14T14:21:06.276Z,28.50
2018-07-14T14:26:03.912Z,28.60
2018-07-14T14:28:32.499Z,28.70
2018-07-14T14:31:01.086Z,28.60
2018-07-14T14:33:30.160Z,28.70
2018-07-14T14:35:58.776Z,28.80
2018-07-14T14:38:27.822Z,29.00
2018-07-14T14:40:56.389Z,29.10
2018-07-14T14:43:25.005Z,29.30
2018-07-14T14:45:53.644Z,29.60
2018-07-14T14:54:09.183Z,30.60
2018-07-14T14:59:06.160Z,31.20
2018-07-14T15:01:34.756Z,31.50
2018-07-14T15:04:03.310Z,31.70
2018-07-14T15:06:31.856Z,31.90
2018-07-14T15:09:00.753Z,31.90
2018-07-14T15:11:29.358Z,32.00
2018-07-14T15:13:57.971Z,32.20
2018-07-14T15:19:20.006Z,32.70
2018-07-14T15:21:48.610Z,32.90
2018-07-14T15:24:17.207Z,33.20
2018-07-14T15:26:45.793Z,33.40
2018-07-14T15:29:14.385Z,33.60
2018-07-14T15:31:42.940Z,33.70
2018-07-14T15:34:11.630Z,33.70
2018-07-14T15:36:40.227Z,33.80
2018-07-14T15:39:10.364Z,34.00
2018-07-14T15:41:39.062Z,33.60
2018-07-14T15:44:07.623Z,33.70
2018-07-14T15:46:36.185Z,33.40
2018-07-14T15:49:05.091Z,33.50
2018-07-14T15:51:34.043Z,33.70
2018-07-14T15:54:02.607Z,33.90
2018-07-14T15:58:59.702Z,34.60
2018-07-14T16:01:28.023Z,34.80
2018-07-14T16:03:56.932Z,34.90
2018-07-14T16:06:25.532Z,35.10
2018-07-14T16:08:54.454Z,35.40
2018-07-14T16:13:51.984Z,36.20
2018-07-14T16:16:21.563Z,36.60
2018-07-14T16:18:50.251Z,36.40
2018-07-14T16:21:19.548Z,36.90
2018-07-14T16:26:16.670Z,37.20
2018-07-14T16:28:45.322Z,37.60
2018-07-14T16:31:14.311Z,37.50
2018-07-14T16:33:43.994Z,38.10
2018-07-14T16:36:12.610Z,38.10
2018-07-14T16:38:53.076Z,38.40
2018-07-14T16:41:22.138Z,38.50
2018-07-14T16:43:50.739Z,38.60
2018-07-14T16:46:19.335Z,38.70
2018-07-14T16:48:48.408Z,39.10
2018-07-14T16:51:17.231Z,39.00
2018-07-14T16:53:45.852Z,39.30
2018-07-14T16:56:14.541Z,39.10
2018-07-14T16:58:43.454Z,39.20
2018-07-14T17:01:12.210Z,38.90
2018-07-14T17:03:40.770Z,38.60
2018-07-14T17:06:09.410Z,38.50
2018-07-14T17:08:37.993Z,37.50
2018-07-14T17:11:06.563Z,36.90
2018-07-14T17:13:38.373Z,36.20
2018-07-14T17:16:07.291Z,35.40
2018-07-14T17:18:45.330Z,34.70
2018-07-14T17:21:13.907Z,33.90
2018-07-14T17:23:42.488Z,33.00
2018-07-14T17:26:11.061Z,32.30
2018-07-14T17:28:39.629Z,31.70
2018-07-14T17:31:08.242Z,31.00
2018-07-14T17:33:36.859Z,30.30
2018-07-14T17:36:05.592Z,29.80
2018-07-14T17:38:34.268Z,29.10
2018-07-14T17:41:03.017Z,28.70
2018-07-14T17:43:31.621Z,28.20
2018-07-14T17:46:00.567Z,27.90
2018-07-14T17:48:29.823Z,27.60
2018-07-14T17:50:58.813Z,27.30
2018-07-14T17:53:27.729Z,27.00
2018-07-14T17:55:56.573Z,26.70
2018-07-14T17:58:25.773Z,26.40
2018-07-14T18:00:54.317Z,26.30
2018-07-14T18:03:23.184Z,26.20
2018-07-14T18:05:52.054Z,26.00
2018-07-14T18:08:20.937Z,25.90
2018-07-14T18:10:49.888Z,25.80
2018-07-14T18:13:19.131Z,25.60
2018-07-14T18:15:47.983Z,25.40
2018-07-14T18:18:16.888Z,25.30
2018-07-14T18:23:14.867Z,25.10
2018-07-14T18:25:43.748Z,25.00
2018-07-14T18:28:12.588Z,24.90
2018-07-14T18:30:42.510Z,24.80
2018-07-14T18:33:11.372Z,24.60
2018-07-14T18:35:40.212Z,24.50
2018-07-14T18:38:09.024Z,24.40
2018-07-14T18:40:38.216Z,24.40
2018-07-14T18:43:07.059Z,24.30
2018-07-14T18:45:35.918Z,24.20
2018-07-14T18:48:05.103Z,24.10
2018-07-14T18:50:33.969Z,24.00
2018-07-14T18:53:02.895Z,23.90
2018-07-14T18:55:31.748Z,23.80
2018-07-14T18:58:00.598Z,23.70
2018-07-14T19:00:28.881Z,23.70
2018-07-14T19:02:57.791Z,23.60
2018-07-14T19:05:26.788Z,23.50
2018-07-14T19:07:55.692Z,23.40
2018-07-14T19:10:24.519Z,23.30
2018-07-14T19:12:53.383Z,23.30
2018-07-14T19:15:22.584Z,23.20
2018-07-14T19:17:51.414Z,23.10
2018-07-14T19:20:20.576Z,23.00
2018-07-14T19:25:18.050Z,22.70
2018-07-14T19:27:47.369Z,22.70
2018-07-14T19:30:16.257Z,22.60
2018-07-14T19:32:45.366Z,22.50
2018-07-14T19:37:43.201Z,22.30
2018-07-14T19:40:12.598Z,22.20
2018-07-14T19:42:41.555Z,22.10
2018-07-14T19:45:10.901Z,22.00
2018-07-14T19:47:40.109Z,21.80
2018-07-14T19:50:09.138Z,21.70
2018-07-14T19:52:37.991Z,21.60
2018-07-14T19:55:07.964Z,21.50
2018-07-14T19:57:36.900Z,21.40
2018-07-14T20:00:06.599Z,21.30
2018-07-14T20:02:35.245Z,21.20
2018-07-14T20:05:04.169Z,21.20
2018-07-14T20:07:33.081Z,21.00
2018-07-14T20:10:02.028Z,21.00
2018-07-14T20:12:30.915Z,20.80
2018-07-14T20:14:59.827Z,20.80
2018-07-14T20:17:28.893Z,20.70
2018-07-14T20:19:57.968Z,20.50
2018-07-14T20:22:26.872Z,20.40
2018-07-14T20:24:55.744Z,20.40
2018-07-14T20:27:24.980Z,20.30
2018-07-14T20:29:53.928Z,20.30
2018-07-14T20:32:23.046Z,20.20
2018-07-14T20:34:52.069Z,20.10
2018-07-14T20:37:21.433Z,20.10
2018-07-14T20:39:50.491Z,20.00
2018-07-14T20:42:19.406Z,20.00
2018-07-14T20:44:48.723Z,19.90
2018-07-14T20:47:18.084Z,19.80
2018-07-14T20:49:46.957Z,19.80
2018-07-14T20:52:16.278Z,19.70
2018-07-14T20:57:17.686Z,19.60
2018-07-14T20:59:46.573Z,19.50
2018-07-14T21:02:14.933Z,19.40
2018-07-14T21:04:44.174Z,19.40
2018-07-14T21:07:12.600Z,19.30
2018-07-14T21:09:41.697Z,19.30
2018-07-14T21:12:13.167Z,19.20
2018-07-14T21:14:45.364Z,19.20
2018-07-14T21:19:42.383Z,19.10
2018-07-14T21:22:10.729Z,19.00
2018-07-14T21:24:39.368Z,19.00
2018-07-14T21:27:07.677Z,19.00
2018-07-14T21:29:35.962Z,18.90
2018-07-14T21:32:05.416Z,18.90
2018-07-14T21:34:33.729Z,18.90
2018-07-14T21:37:02.043Z,18.80
2018-07-14T21:39:33.383Z,18.80
2018-07-14T21:42:04.785Z,18.70
2018-07-14T21:44:33.629Z,18.70
2018-07-14T21:49:30.325Z,18.70
2018-07-14T21:51:58.594Z,18.70
2018-07-14T21:54:26.888Z,18.60
2018-07-14T21:56:55.194Z,18.60
2018-07-14T21:59:33.043Z,18.60
2018-07-14T22:02:04.209Z,18.50
2018-07-14T22:04:33.618Z,18.60
2018-07-14T22:07:01.964Z,18.50
2018-07-14T22:09:30.322Z,18.50
2018-07-14T22:11:58.980Z,18.50
2018-07-14T22:14:30.498Z,18.50
2018-07-14T22:16:58.768Z,18.50
2018-07-14T22:19:27.100Z,18.40
2018-07-14T22:21:55.459Z,18.40
2018-07-14T22:24:24.627Z,18.40
2018-07-14T22:26:52.953Z,18.40
2018-07-14T22:31:56.470Z,18.40
2018-07-14T22:34:26.018Z,18.30
2018-07-14T22:36:54.819Z,18.30
2018-07-14T22:39:25.512Z,18.30
2018-07-14T22:41:53.873Z,18.20
2018-07-14T22:44:22.200Z,18.20
2018-07-14T22:46:50.530Z,18.20
2018-07-14T22:49:18.826Z,18.10
2018-07-14T22:54:15.713Z,18.00
2018-07-14T22:56:47.343Z,18.00
2018-07-14T22:59:15.816Z,18.00
2018-07-14T23:01:44.144Z,18.10
2018-07-14T23:04:15.636Z,18.00
2018-07-14T23:06:43.899Z,18.10
2018-07-14T23:09:12.172Z,18.10
2018-07-14T23:11:40.569Z,18.10
2018-07-14T23:14:08.896Z,18.10
2018-07-14T23:16:46.376Z,18.10
2018-07-14T23:20:43.886Z,18.10
2018-07-14T23:23:12.130Z,18.00
2018-07-14T23:25:40.390Z,17.90
2018-07-14T23:28:09.192Z,17.90
2018-07-14T23:30:37.482Z,17.90
2018-07-14T23:33:05.778Z,17.80
2018-07-14T23:35:34.057Z,17.80
2018-07-14T23:38:02.528Z,17.80
2018-07-14T23:40:30.888Z,17.80
2018-07-14T23:42:59.350Z,17.80
2018-07-14T23:45:27.673Z,17.70
2018-07-14T23:47:55.948Z,17.70
2018-07-14T23:50:24.195Z,17.70
2018-07-14T23:52:52.499Z,17.60
2018-07-14T23:55:20.762Z,17.60
2018-07-14T23:57:49.058Z,17.60
